sensor_id;sensor_type;location;lat;lon;timestamp;P1;durP1;ratioP1;P2;durP2;ratioP2
46266;SDS011;31998;48.798;15.066;2023-06-14T00:00:09;7.53;;;3.03;;
46266;SDS011;31998;48.798;15.066;2023-06-14T00:02:34;9.33;;;3.07;;
46266;SDS011;31998;48.798;15.066;2023-06-14T00:04:59;3.30;;;3.20;;
46266;SDS011;31998;48.798;15.066;2023-06-14T00:07:34;3.30;;;3.10;;
46266;SDS011;31998;48.798;15.066;2023-06-14T00:10:00;4.00;;;3.70;;
46266;SDS011;31998;48.798;15.066;2023-06-14T00:12:25;5.60;;;3.60;;
46266;SDS011;31998;48.798;15.066;2023-06-14T00:14:51;4.03;;;3.80;;
46266;SDS011;31998;48.798;15.066;2023-06-14T00:17:16;3.50;;;3.30;;
46266;SDS011;31998;48.798;15.066;2023-06-14T00:19:42;3.70;;;3.50;;
46266;SDS011;31998;48.798;15.066;2023-06-14T00:22:07;4.87;;;4.50;;
46266;SDS011;31998;48.798;15.066;2023-06-14T00:24:32;6.10;;;2.93;;
46266;SDS011;31998;48.798;15.066;2023-06-14T00:26:57;4.07;;;3.87;;
46266;SDS011;31998;48.798;15.066;2023-06-14T00:29:22;7.37;;;3.20;;
46266;SDS011;31998;48.798;15.066;2023-06-14T00:31:48;3.70;;;3.60;;
46266;SDS011;31998;48.798;15.066;2023-06-14T00:34:13;4.90;;;3.27;;
46266;SDS011;31998;48.798;15.066;2023-06-14T00:36:38;3.47;;;3.37;;
46266;SDS011;31998;48.798;15.066;2023-06-14T00:39:04;4.47;;;4.07;;
46266;SDS011;31998;48.798;15.066;2023-06-14T00:41:29;4.20;;;3.80;;
46266;SDS011;31998;48.798;15.066;2023-06-14T00:43:54;3.13;;;3.03;;
46266;SDS011;31998;48.798;15.066;2023-06-14T00:46:21;3.73;;;3.57;;
46266;SDS011;31998;48.798;15.066;2023-06-14T00:48:47;3.63;;;3.53;;
46266;SDS011;31998;48.798;15.066;2023-06-14T00:51:12;5.73;;;3.40;;
46266;SDS011;31998;48.798;15.066;2023-06-14T00:53:38;4.63;;;4.40;;
46266;SDS011;31998;48.798;15.066;2023-06-14T00:56:04;3.90;;;3.70;;
46266;SDS011;31998;48.798;15.066;2023-06-14T00:58:30;18.50;;;4.13;;
46266;SDS011;31998;48.798;15.066;2023-06-14T01:00:55;3.77;;;3.47;;
46266;SDS011;31998;48.798;15.066;2023-06-14T01:03:21;3.17;;;3.03;;
46266;SDS011;31998;48.798;15.066;2023-06-14T01:05:48;3.20;;;3.10;;
46266;SDS011;31998;48.798;15.066;2023-06-14T01:08:24;3.57;;;3.43;;
46266;SDS011;31998;48.798;15.066;2023-06-14T01:10:52;3.87;;;3.70;;
46266;SDS011;31998;48.798;15.066;2023-06-14T01:13:19;4.20;;;3.60;;
46266;SDS011;31998;48.798;15.066;2023-06-14T01:15:46;3.93;;;3.73;;
46266;SDS011;31998;48.798;15.066;2023-06-14T01:18:12;3.57;;;3.47;;
46266;SDS011;31998;48.798;15.066;2023-06-14T01:20:42;5.47;;;4.17;;
46266;SDS011;31998;48.798;15.066;2023-06-14T01:23:09;3.23;;;3.03;;
46266;SDS011;31998;48.798;15.066;2023-06-14T01:25:37;6.30;;;2.73;;
46266;SDS011;31998;48.798;15.066;2023-06-14T01:28:04;4.83;;;3.63;;
46266;SDS011;31998;48.798;15.066;2023-06-14T01:30:36;3.93;;;3.73;;
46266;SDS011;31998;48.798;15.066;2023-06-14T01:33:02;3.50;;;3.40;;
46266;SDS011;31998;48.798;15.066;2023-06-14T01:35:28;4.10;;;4.00;;
46266;SDS011;31998;48.798;15.066;2023-06-14T01:37:53;3.63;;;2.77;;
46266;SDS011;31998;48.798;15.066;2023-06-14T01:40:19;10.40;;;3.07;;
46266;SDS011;31998;48.798;15.066;2023-06-14T01:42:45;8.20;;;2.93;;
46266;SDS011;31998;48.798;15.066;2023-06-14T01:45:11;3.77;;;3.57;;
46266;SDS011;31998;48.798;15.066;2023-06-14T01:47:36;3.53;;;3.40;;
46266;SDS011;31998;48.798;15.066;2023-06-14T01:50:02;4.03;;;3.73;;
46266;SDS011;31998;48.798;15.066;2023-06-14T01:52:28;4.17;;;3.53;;
46266;SDS011;31998;48.798;15.066;2023-06-14T01:54:53;2.77;;;2.67;;
46266;SDS011;31998;48.798;15.066;2023-06-14T01:57:18;4.60;;;3.37;;
46266;SDS011;31998;48.798;15.066;2023-06-14T01:59:45;3.47;;;3.27;;
46266;SDS011;31998;48.798;15.066;2023-06-14T02:02:13;3.37;;;3.27;;
46266;SDS011;31998;48.798;15.066;2023-06-14T02:04:38;4.30;;;4.10;;
46266;SDS011;31998;48.798;15.066;2023-06-14T02:07:04;4.10;;;3.90;;
46266;SDS011;31998;48.798;15.066;2023-06-14T02:09:29;3.90;;;3.60;;
46266;SDS011;31998;48.798;15.066;2023-06-14T02:11:54;7.10;;;4.17;;
46266;SDS011;31998;48.798;15.066;2023-06-14T02:14:20;3.73;;;3.53;;
46266;SDS011;31998;48.798;15.066;2023-06-14T02:16:45;3.20;;;3.10;;
46266;SDS011;31998;48.798;15.066;2023-06-14T02:19:14;3.60;;;3.43;;
46266;SDS011;31998;48.798;15.066;2023-06-14T02:21:40;3.63;;;3.53;;
46266;SDS011;31998;48.798;15.066;2023-06-14T02:24:06;3.90;;;3.70;;
46266;SDS011;31998;48.798;15.066;2023-06-14T02:26:31;4.90;;;3.40;;
46266;SDS011;31998;48.798;15.066;2023-06-14T02:28:57;4.07;;;3.87;;
46266;SDS011;31998;48.798;15.066;2023-06-14T02:31:23;4.87;;;4.50;;
46266;SDS011;31998;48.798;15.066;2023-06-14T02:33:48;4.17;;;3.97;;
46266;SDS011;31998;48.798;15.066;2023-06-14T02:36:13;4.23;;;3.83;;
46266;SDS011;31998;48.798;15.066;2023-06-14T02:38:38;4.60;;;4.27;;
46266;SDS011;31998;48.798;15.066;2023-06-14T02:41:03;4.90;;;4.60;;
46266;SDS011;31998;48.798;15.066;2023-06-14T02:43:29;4.70;;;4.40;;
46266;SDS011;31998;48.798;15.066;2023-06-14T02:45:55;5.03;;;4.73;;
46266;SDS011;31998;48.798;15.066;2023-06-14T02:48:20;5.50;;;5.10;;
46266;SDS011;31998;48.798;15.066;2023-06-14T02:50:45;5.13;;;4.73;;
46266;SDS011;31998;48.798;15.066;2023-06-14T02:53:10;4.93;;;4.10;;
46266;SDS011;31998;48.798;15.066;2023-06-14T02:55:37;6.53;;;4.63;;
46266;SDS011;31998;48.798;15.066;2023-06-14T02:58:04;5.03;;;4.83;;
46266;SDS011;31998;48.798;15.066;2023-06-14T03:00:29;4.80;;;4.53;;
46266;SDS011;31998;48.798;15.066;2023-06-14T03:02:55;4.73;;;4.53;;
46266;SDS011;31998;48.798;15.066;2023-06-14T03:05:21;3.33;;;3.23;;
46266;SDS011;31998;48.798;15.066;2023-06-14T03:07:47;4.33;;;3.93;;
46266;SDS011;31998;48.798;15.066;2023-06-14T03:10:12;6.80;;;4.40;;
46266;SDS011;31998;48.798;15.066;2023-06-14T03:12:38;10.80;;;5.30;;
46266;SDS011;31998;48.798;15.066;2023-06-14T03:15:03;5.17;;;4.87;;
46266;SDS011;31998;48.798;15.066;2023-06-14T03:17:28;4.33;;;4.10;;
46266;SDS011;31998;48.798;15.066;2023-06-14T03:19:55;4.57;;;4.37;;
46266;SDS011;31998;48.798;15.066;2023-06-14T03:22:20;4.13;;;3.83;;
46266;SDS011;31998;48.798;15.066;2023-06-14T03:24:46;8.17;;;4.00;;
46266;SDS011;31998;48.798;15.066;2023-06-14T03:27:12;4.13;;;3.83;;
46266;SDS011;31998;48.798;15.066;2023-06-14T03:29:37;4.30;;;4.10;;
46266;SDS011;31998;48.798;15.066;2023-06-14T03:32:02;5.67;;;4.00;;
46266;SDS011;31998;48.798;15.066;2023-06-14T03:34:28;4.03;;;3.10;;
46266;SDS011;31998;48.798;15.066;2023-06-14T03:36:53;3.30;;;3.20;;
46266;SDS011;31998;48.798;15.066;2023-06-14T03:39:18;5.50;;;4.30;;
46266;SDS011;31998;48.798;15.066;2023-06-14T03:41:44;3.17;;;3.07;;
46266;SDS011;31998;48.798;15.066;2023-06-14T03:44:09;4.07;;;3.87;;
46266;SDS011;31998;48.798;15.066;2023-06-14T03:46:35;4.20;;;3.00;;
46266;SDS011;31998;48.798;15.066;2023-06-14T03:49:00;3.60;;;3.50;;
46266;SDS011;31998;48.798;15.066;2023-06-14T03:51:26;3.73;;;3.53;;
46266;SDS011;31998;48.798;15.066;2023-06-14T03:53:51;5.00;;;4.70;;
46266;SDS011;31998;48.798;15.066;2023-06-14T03:56:16;4.23;;;3.93;;
46266;SDS011;31998;48.798;15.066;2023-06-14T03:58:41;4.13;;;3.83;;
46266;SDS011;31998;48.798;15.066;2023-06-14T04:01:07;3.60;;;3.40;;
46266;SDS011;31998;48.798;15.066;2023-06-14T04:03:32;4.10;;;4.00;;
46266;SDS011;31998;48.798;15.066;2023-06-14T04:05:58;3.80;;;3.50;;
46266;SDS011;31998;48.798;15.066;2023-06-14T04:08:24;4.10;;;3.80;;
46266;SDS011;31998;48.798;15.066;2023-06-14T04:10:50;4.30;;;4.00;;
46266;SDS011;31998;48.798;15.066;2023-06-14T04:13:15;4.00;;;3.70;;
46266;SDS011;31998;48.798;15.066;2023-06-14T04:15:40;3.23;;;2.90;;
46266;SDS011;31998;48.798;15.066;2023-06-14T04:18:10;6.00;;;3.77;;
46266;SDS011;31998;48.798;15.066;2023-06-14T04:20:36;5.47;;;4.97;;
46266;SDS011;31998;48.798;15.066;2023-06-14T04:23:11;14.40;;;4.53;;
46266;SDS011;31998;48.798;15.066;2023-06-14T04:25:37;4.33;;;4.13;;
46266;SDS011;31998;48.798;15.066;2023-06-14T04:28:02;4.70;;;4.40;;
46266;SDS011;31998;48.798;15.066;2023-06-14T04:30:28;4.70;;;4.33;;
46266;SDS011;31998;48.798;15.066;2023-06-14T04:32:56;5.57;;;5.27;;
46266;SDS011;31998;48.798;15.066;2023-06-14T04:35:21;5.30;;;5.10;;
46266;SDS011;31998;48.798;15.066;2023-06-14T04:37:48;4.83;;;4.57;;
46266;SDS011;31998;48.798;15.066;2023-06-14T04:40:14;5.50;;;5.10;;
46266;SDS011;31998;48.798;15.066;2023-06-14T04:42:39;5.30;;;4.90;;
46266;SDS011;31998;48.798;15.066;2023-06-14T04:45:05;4.77;;;4.47;;
46266;SDS011;31998;48.798;15.066;2023-06-14T04:47:32;5.87;;;4.70;;
46266;SDS011;31998;48.798;15.066;2023-06-14T04:49:57;11.30;;;5.00;;
46266;SDS011;31998;48.798;15.066;2023-06-14T04:52:22;5.40;;;5.00;;
46266;SDS011;31998;48.798;15.066;2023-06-14T04:54:51;5.00;;;4.70;;
46266;SDS011;31998;48.798;15.066;2023-06-14T04:57:17;4.70;;;4.50;;
46266;SDS011;31998;48.798;15.066;2023-06-14T04:59:43;4.73;;;4.50;;
46266;SDS011;31998;48.798;15.066;2023-06-14T05:02:09;5.37;;;4.97;;
46266;SDS011;31998;48.798;15.066;2023-06-14T05:04:35;8.00;;;5.30;;
46266;SDS011;31998;48.798;15.066;2023-06-14T05:07:07;5.10;;;4.70;;
46266;SDS011;31998;48.798;15.066;2023-06-14T05:09:33;7.40;;;4.93;;
46266;SDS011;31998;48.798;15.066;2023-06-14T05:11:59;5.40;;;5.00;;
46266;SDS011;31998;48.798;15.066;2023-06-14T05:14:25;8.07;;;6.73;;
46266;SDS011;31998;48.798;15.066;2023-06-14T05:16:50;6.10;;;5.60;;
46266;SDS011;31998;48.798;15.066;2023-06-14T05:19:15;5.57;;;5.27;;
46266;SDS011;31998;48.798;15.066;2023-06-14T05:21:42;7.30;;;6.53;;
46266;SDS011;31998;48.798;15.066;2023-06-14T05:24:08;4.00;;;3.80;;
46266;SDS011;31998;48.798;15.066;2023-06-14T05:26:34;5.17;;;4.77;;
46266;SDS011;31998;48.798;15.066;2023-06-14T05:29:00;3.80;;;3.70;;
46266;SDS011;31998;48.798;15.066;2023-06-14T05:31:26;4.17;;;3.97;;
46266;SDS011;31998;48.798;15.066;2023-06-14T05:33:52;4.00;;;3.80;;
46266;SDS011;31998;48.798;15.066;2023-06-14T05:36:17;4.57;;;4.27;;
46266;SDS011;31998;48.798;15.066;2023-06-14T05:38:43;4.07;;;3.87;;
46266;SDS011;31998;48.798;15.066;2023-06-14T05:41:08;3.47;;;3.27;;
46266;SDS011;31998;48.798;15.066;2023-06-14T05:43:33;4.23;;;3.90;;
46266;SDS011;31998;48.798;15.066;2023-06-14T05:45:59;4.07;;;3.77;;
46266;SDS011;31998;48.798;15.066;2023-06-14T05:48:24;4.43;;;4.13;;
46266;SDS011;31998;48.798;15.066;2023-06-14T05:50:49;4.10;;;4.00;;
46266;SDS011;31998;48.798;15.066;2023-06-14T05:53:14;3.40;;;3.30;;
46266;SDS011;31998;48.798;15.066;2023-06-14T05:55:40;4.90;;;3.50;;
46266;SDS011;31998;48.798;15.066;2023-06-14T05:58:05;3.87;;;3.67;;
46266;SDS011;31998;48.798;15.066;2023-06-14T06:00:30;5.90;;;3.20;;
46266;SDS011;31998;48.798;15.066;2023-06-14T06:02:55;5.13;;;4.10;;
46266;SDS011;31998;48.798;15.066;2023-06-14T06:05:22;3.67;;;3.37;;
46266;SDS011;31998;48.798;15.066;2023-06-14T06:07:48;3.20;;;3.10;;
46266;SDS011;31998;48.798;15.066;2023-06-14T06:10:13;7.33;;;3.13;;
46266;SDS011;31998;48.798;15.066;2023-06-14T06:12:38;14.90;;;4.13;;
46266;SDS011;31998;48.798;15.066;2023-06-14T06:15:03;3.93;;;3.63;;
46266;SDS011;31998;48.798;15.066;2023-06-14T06:17:29;4.53;;;3.63;;
46266;SDS011;31998;48.798;15.066;2023-06-14T06:19:54;3.70;;;3.37;;
46266;SDS011;31998;48.798;15.066;2023-06-14T06:22:20;7.50;;;4.00;;
46266;SDS011;31998;48.798;15.066;2023-06-14T06:24:45;4.97;;;3.43;;
46266;SDS011;31998;48.798;15.066;2023-06-14T06:27:10;3.47;;;3.30;;
46266;SDS011;31998;48.798;15.066;2023-06-14T06:29:37;4.10;;;3.90;;
46266;SDS011;31998;48.798;15.066;2023-06-14T06:32:02;3.93;;;3.33;;
46266;SDS011;31998;48.798;15.066;2023-06-14T06:34:28;3.47;;;3.27;;
46266;SDS011;31998;48.798;15.066;2023-06-14T06:36:53;3.43;;;3.33;;
46266;SDS011;31998;48.798;15.066;2023-06-14T06:39:18;3.80;;;3.13;;
46266;SDS011;31998;48.798;15.066;2023-06-14T06:41:44;6.50;;;3.83;;
46266;SDS011;31998;48.798;15.066;2023-06-14T06:44:09;3.77;;;3.57;;
46266;SDS011;31998;48.798;15.066;2023-06-14T06:46:37;4.80;;;4.40;;
46266;SDS011;31998;48.798;15.066;2023-06-14T06:49:07;3.77;;;3.57;;
46266;SDS011;31998;48.798;15.066;2023-06-14T06:51:33;3.53;;;3.33;;
46266;SDS011;31998;48.798;15.066;2023-06-14T06:53:58;3.47;;;3.23;;
46266;SDS011;31998;48.798;15.066;2023-06-14T06:56:23;3.23;;;3.07;;
46266;SDS011;31998;48.798;15.066;2023-06-14T06:58:49;3.50;;;3.20;;
46266;SDS011;31998;48.798;15.066;2023-06-14T07:01:15;2.90;;;2.80;;
46266;SDS011;31998;48.798;15.066;2023-06-14T07:03:40;3.30;;;3.20;;
46266;SDS011;31998;48.798;15.066;2023-06-14T07:06:06;3.60;;;3.40;;
46266;SDS011;31998;48.798;15.066;2023-06-14T07:08:31;3.07;;;2.97;;
46266;SDS011;31998;48.798;15.066;2023-06-14T07:10:56;3.47;;;2.80;;
46266;SDS011;31998;48.798;15.066;2023-06-14T07:13:21;4.97;;;3.30;;
46266;SDS011;31998;48.798;15.066;2023-06-14T07:15:47;3.00;;;2.80;;
46266;SDS011;31998;48.798;15.066;2023-06-14T07:18:12;3.57;;;3.33;;
46266;SDS011;31998;48.798;15.066;2023-06-14T07:20:38;3.07;;;2.97;;
46266;SDS011;31998;48.798;15.066;2023-06-14T07:23:03;3.23;;;2.90;;
46266;SDS011;31998;48.798;15.066;2023-06-14T07:25:28;2.57;;;2.47;;
46266;SDS011;31998;48.798;15.066;2023-06-14T07:27:55;5.20;;;3.03;;
46266;SDS011;31998;48.798;15.066;2023-06-14T07:30:20;5.73;;;3.67;;
46266;SDS011;31998;48.798;15.066;2023-06-14T07:32:45;2.87;;;2.77;;
46266;SDS011;31998;48.798;15.066;2023-06-14T07:35:11;3.13;;;2.47;;
46266;SDS011;31998;48.798;15.066;2023-06-14T07:37:36;4.53;;;3.70;;
46266;SDS011;31998;48.798;15.066;2023-06-14T07:40:01;2.70;;;2.60;;
46266;SDS011;31998;48.798;15.066;2023-06-14T07:42:32;3.40;;;3.00;;
46266;SDS011;31998;48.798;15.066;2023-06-14T07:44:57;2.97;;;2.70;;
46266;SDS011;31998;48.798;15.066;2023-06-14T07:47:22;8.97;;;2.97;;
46266;SDS011;31998;48.798;15.066;2023-06-14T07:49:47;3.67;;;2.63;;
46266;SDS011;31998;48.798;15.066;2023-06-14T07:52:12;2.83;;;2.63;;
46266;SDS011;31998;48.798;15.066;2023-06-14T07:54:38;3.10;;;3.00;;
46266;SDS011;31998;48.798;15.066;2023-06-14T07:57:03;3.30;;;3.07;;
46266;SDS011;31998;48.798;15.066;2023-06-14T07:59:29;3.40;;;3.30;;
46266;SDS011;31998;48.798;15.066;2023-06-14T08:01:54;2.83;;;2.73;;
46266;SDS011;31998;48.798;15.066;2023-06-14T08:04:20;3.00;;;2.90;;
46266;SDS011;31998;48.798;15.066;2023-06-14T08:06:45;2.67;;;2.57;;
46266;SDS011;31998;48.798;15.066;2023-06-14T08:09:11;2.97;;;2.87;;
46266;SDS011;31998;48.798;15.066;2023-06-14T08:11:36;2.90;;;2.77;;
46266;SDS011;31998;48.798;15.066;2023-06-14T08:14:01;3.40;;;3.30;;
46266;SDS011;31998;48.798;15.066;2023-06-14T08:16:27;3.60;;;2.50;;
46266;SDS011;31998;48.798;15.066;2023-06-14T08:18:52;3.07;;;2.87;;
46266;SDS011;31998;48.798;15.066;2023-06-14T08:21:17;2.93;;;2.83;;
46266;SDS011;31998;48.798;15.066;2023-06-14T08:23:43;2.63;;;2.43;;
46266;SDS011;31998;48.798;15.066;2023-06-14T08:26:08;3.50;;;3.20;;
46266;SDS011;31998;48.798;15.066;2023-06-14T08:28:34;2.67;;;2.57;;
46266;SDS011;31998;48.798;15.066;2023-06-14T08:30:59;3.20;;;2.80;;
46266;SDS011;31998;48.798;15.066;2023-06-14T08:33:25;2.70;;;2.60;;
46266;SDS011;31998;48.798;15.066;2023-06-14T08:35:50;2.87;;;2.67;;
46266;SDS011;31998;48.798;15.066;2023-06-14T08:38:15;5.17;;;2.90;;
46266;SDS011;31998;48.798;15.066;2023-06-14T08:40:41;2.23;;;2.23;;
46266;SDS011;31998;48.798;15.066;2023-06-14T08:43:07;5.43;;;3.03;;
46266;SDS011;31998;48.798;15.066;2023-06-14T08:45:32;3.07;;;2.97;;
46266;SDS011;31998;48.798;15.066;2023-06-14T08:47:57;3.33;;;2.80;;
46266;SDS011;31998;48.798;15.066;2023-06-14T08:50:24;2.77;;;2.67;;
46266;SDS011;31998;48.798;15.066;2023-06-14T08:52:59;3.63;;;3.33;;
46266;SDS011;31998;48.798;15.066;2023-06-14T08:55:28;2.87;;;2.77;;
46266;SDS011;31998;48.798;15.066;2023-06-14T08:57:54;4.63;;;2.67;;
46266;SDS011;31998;48.798;15.066;2023-06-14T09:00:20;3.43;;;3.23;;
46266;SDS011;31998;48.798;15.066;2023-06-14T09:02:46;3.07;;;2.87;;
46266;SDS011;31998;48.798;15.066;2023-06-14T09:05:11;2.70;;;2.50;;
46266;SDS011;31998;48.798;15.066;2023-06-14T09:07:38;2.83;;;2.73;;
46266;SDS011;31998;48.798;15.066;2023-06-14T09:10:07;3.10;;;2.90;;
46266;SDS011;31998;48.798;15.066;2023-06-14T09:12:33;2.83;;;2.63;;
46266;SDS011;31998;48.798;15.066;2023-06-14T09:14:58;2.80;;;2.53;;
46266;SDS011;31998;48.798;15.066;2023-06-14T09:17:23;2.70;;;2.60;;
46266;SDS011;31998;48.798;15.066;2023-06-14T09:19:49;3.00;;;2.70;;
46266;SDS011;31998;48.798;15.066;2023-06-14T09:22:15;2.83;;;2.70;;
46266;SDS011;31998;48.798;15.066;2023-06-14T09:24:41;3.43;;;2.23;;
46266;SDS011;31998;48.798;15.066;2023-06-14T09:27:06;2.57;;;2.47;;
46266;SDS011;31998;48.798;15.066;2023-06-14T09:29:33;5.00;;;3.23;;
46266;SDS011;31998;48.798;15.066;2023-06-14T09:31:58;2.63;;;2.63;;
46266;SDS011;31998;48.798;15.066;2023-06-14T09:34:23;3.93;;;2.90;;
46266;SDS011;31998;48.798;15.066;2023-06-14T09:36:48;3.93;;;2.80;;
46266;SDS011;31998;48.798;15.066;2023-06-14T09:39:16;7.03;;;3.20;;
46266;SDS011;31998;48.798;15.066;2023-06-14T09:41:42;3.23;;;3.07;;
46266;SDS011;31998;48.798;15.066;2023-06-14T09:44:08;9.87;;;2.60;;
46266;SDS011;31998;48.798;15.066;2023-06-14T09:46:34;3.17;;;3.07;;
46266;SDS011;31998;48.798;15.066;2023-06-14T09:49:00;3.23;;;2.33;;
46266;SDS011;31998;48.798;15.066;2023-06-14T09:51:26;3.33;;;2.33;;
46266;SDS011;31998;48.798;15.066;2023-06-14T09:53:52;4.57;;;2.53;;
46266;SDS011;31998;48.798;15.066;2023-06-14T09:58:56;4.30;;;2.60;;
46266;SDS011;31998;48.798;15.066;2023-06-14T10:01:22;2.27;;;2.17;;
46266;SDS011;31998;48.798;15.066;2023-06-14T10:03:48;2.87;;;2.63;;
46266;SDS011;31998;48.798;15.066;2023-06-14T10:06:15;8.63;;;2.93;;
46266;SDS011;31998;48.798;15.066;2023-06-14T10:08:41;6.83;;;2.57;;
46266;SDS011;31998;48.798;15.066;2023-06-14T10:11:06;2.70;;;2.50;;
46266;SDS011;31998;48.798;15.066;2023-06-14T10:13:32;2.50;;;2.40;;
46266;SDS011;31998;48.798;15.066;2023-06-14T10:16:09;2.27;;;2.07;;
46266;SDS011;31998;48.798;15.066;2023-06-14T10:24:21;2.10;;;2.00;;
46266;SDS011;31998;48.798;15.066;2023-06-14T10:26:51;2.60;;;2.33;;
46266;SDS011;31998;48.798;15.066;2023-06-14T10:29:17;9.33;;;2.10;;
46266;SDS011;31998;48.798;15.066;2023-06-14T10:31:46;5.33;;;2.60;;
46266;SDS011;31998;48.798;15.066;2023-06-14T10:34:12;2.43;;;2.33;;
46266;SDS011;31998;48.798;15.066;2023-06-14T10:36:45;3.30;;;2.50;;
46266;SDS011;31998;48.798;15.066;2023-06-14T10:39:13;4.90;;;2.60;;
46266;SDS011;31998;48.798;15.066;2023-06-14T10:41:40;4.53;;;2.50;;
46266;SDS011;31998;48.798;15.066;2023-06-14T10:46:40;2.67;;;2.57;;
46266;SDS011;31998;48.798;15.066;2023-06-14T10:49:05;3.20;;;3.07;;
46266;SDS011;31998;48.798;15.066;2023-06-14T10:51:41;3.17;;;3.07;;
46266;SDS011;31998;48.798;15.066;2023-06-14T10:54:14;9.20;;;2.50;;
46266;SDS011;31998;48.798;15.066;2023-06-14T10:56:46;3.00;;;2.90;;
46266;SDS011;31998;48.798;15.066;2023-06-14T10:59:12;3.23;;;2.80;;
46266;SDS011;31998;48.798;15.066;2023-06-14T11:04:23;10.23;;;2.70;;
46266;SDS011;31998;48.798;15.066;2023-06-14T11:06:53;2.40;;;2.30;;
46266;SDS011;31998;48.798;15.066;2023-06-14T11:12:10;2.40;;;2.30;;
46266;SDS011;31998;48.798;15.066;2023-06-14T11:14:36;2.70;;;2.60;;
46266;SDS011;31998;48.798;15.066;2023-06-14T11:17:02;2.53;;;2.37;;
46266;SDS011;31998;48.798;15.066;2023-06-14T11:19:27;2.50;;;2.37;;
46266;SDS011;31998;48.798;15.066;2023-06-14T11:21:54;3.10;;;2.90;;
46266;SDS011;31998;48.798;15.066;2023-06-14T11:24:19;2.60;;;2.40;;
46266;SDS011;31998;48.798;15.066;2023-06-14T11:26:46;3.10;;;3.00;;
46266;SDS011;31998;48.798;15.066;2023-06-14T11:29:11;10.80;;;2.57;;
46266;SDS011;31998;48.798;15.066;2023-06-14T11:31:37;2.63;;;2.53;;
46266;SDS011;31998;48.798;15.066;2023-06-14T11:34:02;4.47;;;2.90;;
46266;SDS011;31998;48.798;15.066;2023-06-14T11:36:29;11.77;;;2.57;;
46266;SDS011;31998;48.798;15.066;2023-06-14T11:39:01;2.23;;;2.23;;
46266;SDS011;31998;48.798;15.066;2023-06-14T11:41:32;3.87;;;2.80;;
46266;SDS011;31998;48.798;15.066;2023-06-14T11:43:57;3.03;;;2.33;;
46266;SDS011;31998;48.798;15.066;2023-06-14T11:46:23;3.03;;;2.57;;
46266;SDS011;31998;48.798;15.066;2023-06-14T11:48:50;2.87;;;2.77;;
46266;SDS011;31998;48.798;15.066;2023-06-14T11:51:16;3.47;;;2.60;;
46266;SDS011;31998;48.798;15.066;2023-06-14T11:53:42;2.57;;;2.47;;
46266;SDS011;31998;48.798;15.066;2023-06-14T11:56:07;4.80;;;2.93;;
46266;SDS011;31998;48.798;15.066;2023-06-14T11:58:33;3.37;;;2.70;;
46266;SDS011;31998;48.798;15.066;2023-06-14T12:00:58;4.17;;;3.00;;
46266;SDS011;31998;48.798;15.066;2023-06-14T12:03:23;5.90;;;2.87;;
46266;SDS011;31998;48.798;15.066;2023-06-14T12:05:50;2.40;;;2.30;;
46266;SDS011;31998;48.798;15.066;2023-06-14T12:08:16;7.03;;;2.80;;
46266;SDS011;31998;48.798;15.066;2023-06-14T12:10:42;2.60;;;2.50;;
46266;SDS011;31998;48.798;15.066;2023-06-14T12:13:10;2.90;;;2.80;;
46266;SDS011;31998;48.798;15.066;2023-06-14T12:15:36;2.57;;;2.47;;
46266;SDS011;31998;48.798;15.066;2023-06-14T12:18:01;4.03;;;2.80;;
46266;SDS011;31998;48.798;15.066;2023-06-14T12:20:29;2.57;;;2.47;;
46266;SDS011;31998;48.798;15.066;2023-06-14T12:22:56;6.13;;;2.37;;
46266;SDS011;31998;48.798;15.066;2023-06-14T12:25:28;4.20;;;3.13;;
46266;SDS011;31998;48.798;15.066;2023-06-14T12:27:56;4.17;;;2.70;;
46266;SDS011;31998;48.798;15.066;2023-06-14T12:30:21;2.90;;;2.07;;
46266;SDS011;31998;48.798;15.066;2023-06-14T12:32:46;5.40;;;2.70;;
46266;SDS011;31998;48.798;15.066;2023-06-14T12:35:12;2.80;;;2.60;;
46266;SDS011;31998;48.798;15.066;2023-06-14T12:37:37;3.63;;;2.40;;
46266;SDS011;31998;48.798;15.066;2023-06-14T12:40:03;4.77;;;3.10;;
46266;SDS011;31998;48.798;15.066;2023-06-14T12:42:32;3.33;;;2.80;;
46266;SDS011;31998;48.798;15.066;2023-06-14T12:44:58;2.80;;;2.60;;
46266;SDS011;31998;48.798;15.066;2023-06-14T12:47:23;2.90;;;2.70;;
46266;SDS011;31998;48.798;15.066;2023-06-14T12:49:49;3.07;;;2.87;;
46266;SDS011;31998;48.798;15.066;2023-06-14T12:52:14;3.20;;;2.90;;
46266;SDS011;31998;48.798;15.066;2023-06-14T12:54:39;6.53;;;3.00;;
46266;SDS011;31998;48.798;15.066;2023-06-14T12:57:05;2.63;;;2.43;;
46266;SDS011;31998;48.798;15.066;2023-06-14T12:59:30;3.03;;;2.70;;
46266;SDS011;31998;48.798;15.066;2023-06-14T13:01:58;3.00;;;2.80;;
46266;SDS011;31998;48.798;15.066;2023-06-14T13:04:24;2.87;;;2.67;;
46266;SDS011;31998;48.798;15.066;2023-06-14T13:06:49;7.03;;;2.90;;
46266;SDS011;31998;48.798;15.066;2023-06-14T13:09:14;2.43;;;2.40;;
46266;SDS011;31998;48.798;15.066;2023-06-14T13:11:40;2.50;;;2.40;;
46266;SDS011;31998;48.798;15.066;2023-06-14T13:14:05;8.73;;;2.97;;
46266;SDS011;31998;48.798;15.066;2023-06-14T13:16:30;2.80;;;2.60;;
46266;SDS011;31998;48.798;15.066;2023-06-14T13:18:56;2.80;;;2.70;;
46266;SDS011;31998;48.798;15.066;2023-06-14T13:21:21;3.83;;;3.30;;
46266;SDS011;31998;48.798;15.066;2023-06-14T13:23:46;4.00;;;3.20;;
46266;SDS011;31998;48.798;15.066;2023-06-14T13:26:11;2.83;;;2.73;;
46266;SDS011;31998;48.798;15.066;2023-06-14T13:28:37;4.67;;;2.47;;
46266;SDS011;31998;48.798;15.066;2023-06-14T13:31:02;2.90;;;2.80;;
46266;SDS011;31998;48.798;15.066;2023-06-14T13:33:27;2.23;;;2.23;;
46266;SDS011;31998;48.798;15.066;2023-06-14T13:35:53;2.80;;;2.60;;
46266;SDS011;31998;48.798;15.066;2023-06-14T13:38:18;2.60;;;2.30;;
46266;SDS011;31998;48.798;15.066;2023-06-14T13:40:43;2.40;;;2.20;;
46266;SDS011;31998;48.798;15.066;2023-06-14T13:43:08;2.93;;;2.73;;
46266;SDS011;31998;48.798;15.066;2023-06-14T13:45:34;2.50;;;2.40;;
46266;SDS011;31998;48.798;15.066;2023-06-14T13:48:00;2.63;;;2.53;;
46266;SDS011;31998;48.798;15.066;2023-06-14T13:50:25;5.17;;;2.03;;
46266;SDS011;31998;48.798;15.066;2023-06-14T13:52:50;2.73;;;2.53;;
46266;SDS011;31998;48.798;15.066;2023-06-14T13:55:15;10.43;;;3.20;;
46266;SDS011;31998;48.798;15.066;2023-06-14T13:57:41;2.90;;;2.60;;
46266;SDS011;31998;48.798;15.066;2023-06-14T14:00:06;2.77;;;2.43;;
46266;SDS011;31998;48.798;15.066;2023-06-14T14:02:33;4.03;;;2.77;;
46266;SDS011;31998;48.798;15.066;2023-06-14T14:04:58;3.43;;;2.47;;
46266;SDS011;31998;48.798;15.066;2023-06-14T14:07:24;3.20;;;2.90;;
46266;SDS011;31998;48.798;15.066;2023-06-14T14:09:49;7.77;;;2.93;;
46266;SDS011;31998;48.798;15.066;2023-06-14T14:12:14;3.50;;;3.27;;
46266;SDS011;31998;48.798;15.066;2023-06-14T14:14:39;3.33;;;3.20;;
46266;SDS011;31998;48.798;15.066;2023-06-14T14:17:05;7.87;;;2.73;;
46266;SDS011;31998;48.798;15.066;2023-06-14T14:19:31;3.13;;;2.93;;
46266;SDS011;31998;48.798;15.066;2023-06-14T14:21:56;3.20;;;3.10;;
46266;SDS011;31998;48.798;15.066;2023-06-14T14:24:22;2.77;;;2.67;;
46266;SDS011;31998;48.798;15.066;2023-06-14T14:26:47;4.57;;;2.80;;
46266;SDS011;31998;48.798;15.066;2023-06-14T14:29:13;3.33;;;3.23;;
46266;SDS011;31998;48.798;15.066;2023-06-14T14:31:39;5.37;;;2.80;;
46266;SDS011;31998;48.798;15.066;2023-06-14T14:34:04;3.03;;;2.93;;
46266;SDS011;31998;48.798;15.066;2023-06-14T14:36:30;3.13;;;3.00;;
46266;SDS011;31998;48.798;15.066;2023-06-14T14:38:55;3.13;;;2.93;;
46266;SDS011;31998;48.798;15.066;2023-06-14T14:41:20;3.13;;;3.00;;